Athens, TN

7:32 PM EDT on September 21, 2014 (GMT -0400)
Oak Ridge | Change Station
CLOSE
Current Station
Airport
Location: Oak Ridge,
Elevation: 915 ft
Nearby Weather Stations

Elev 915 ft 36.02 °N, 84.23 °W | Updated 39 minutes ago

Mostly Cloudy
Mostly Cloudy
75 °F
Feels Like 75 °F
N
5
Wind Variable Wind from SSW

Today
High -- | Low -- °F
--% Chance of Precip.
Yesterday
High -- | Low -- °F
Precip. -- in
7:25 AM 7:36 PM
Waning Crescent, 5% visible
Pressure 29.90 in
Visibility 10.0 miles
Clouds Few 7500 ft
Scattered Clouds 9000 ft
Dew Point 69 °F
Humidity 82%
Rainfall 0.12 in
Snow Depth Not available.
UV 0 out of 12
Pollen 6.80 out of 12
Air Quality Not available.
Flu Activity Not available.
METAR KOQT 212253Z AUTO 20004KT 10SM FEW075 SCT090 24/21 A2993 RMK AO2 SLP123 T02390206

More Conditions Fewer Conditions

Pressure 29.90 in
Visibility 10.0 miles
Clouds Few 7500 ft
Scattered Clouds 9000 ft
Dew Point 69 °F
Humidity 82%
Rainfall 0.12 in
Snow Depth Not available.
UV 0 out of 12
Pollen 6.80 out of 12
Air Quality Not available.
Flu Activity Not available.
METAR KOQT 212253Z AUTO 20004KT 10SM FEW075 SCT090 24/21 A2993 RMK AO2 SLP123 T02390206

More Conditions Fewer Conditions

10-Day Weather Forecast

Almanac

Astronomy

Sep. 21, 2014 Rise Set
Actual Time 7:25 AM EDT 7:36 PM EDT
Civil Twilight 7:00 AM EDT 8:02 PM EDT
Nautical Twilight 6:30 AM EDT 8:31 PM EDT
Astronomical Twilight 6:00 AM EDT 9:01 PM EDT
Moon 5:02 AM EDT 6:09 PM EDT
Length of Visible Light 13h 01m
Length of Day
12h 11m
Tomorrow will be 2m 13s shorter.
Waning Crescent, 5% of the Moon is Illuminated
Today
Waning Crescent
Sep 24
New
Oct 1
First Quarter
Oct 8
Full
Oct 15
Last Quarter

Today's Extremes

State Highs State Lows

Community

WunderPhotos

Upload Photos

1,755,292 photos uploaded!

WunderBlogs® & News

Nearby

Snow Depth

Station Depth Elevation
No new snow has been reported.

Earthquake Activity

City Distance Mag. Time & Date
Sweetwater, Tennessee 16 miles 2.5 3:54 PM EDT
2014-09-20
Minimum magnitude displayed is 2.5.

Coastal Water Temperatures

Place Temperature
No Stations Reporting

Nearby Weather Stations